sensor_id;sensor_type;location;lat;lon;timestamp;P1;durP1;ratioP1;P2;durP2;ratioP2
8260;SDS011;64115;50.170;8.242;2024-03-17T00:02:10;4.80;;;4.27;;
8260;SDS011;64115;50.170;8.242;2024-03-17T00:04:36;5.10;;;4.60;;
8260;SDS011;64115;50.170;8.242;2024-03-17T00:07:04;5.70;;;4.47;;
8260;SDS011;64115;50.170;8.242;2024-03-17T00:09:31;7.00;;;4.63;;
8260;SDS011;64115;50.170;8.242;2024-03-17T00:11:57;7.60;;;5.37;;
8260;SDS011;64115;50.170;8.242;2024-03-17T00:14:24;8.77;;;5.33;;
8260;SDS011;64115;50.170;8.242;2024-03-17T00:16:52;5.40;;;4.63;;
8260;SDS011;64115;50.170;8.242;2024-03-17T00:19:19;5.37;;;4.87;;
8260;SDS011;64115;50.170;8.242;2024-03-17T00:21:47;5.23;;;4.27;;
8260;SDS011;64115;50.170;8.242;2024-03-17T00:24:14;5.23;;;4.37;;
8260;SDS011;64115;50.170;8.242;2024-03-17T00:26:41;8.50;;;5.17;;
8260;SDS011;64115;50.170;8.242;2024-03-17T00:29:07;7.70;;;4.93;;
8260;SDS011;64115;50.170;8.242;2024-03-17T00:31:33;11.20;;;5.73;;
8260;SDS011;64115;50.170;8.242;2024-03-17T00:33:59;6.40;;;4.93;;
8260;SDS011;64115;50.170;8.242;2024-03-17T00:36:26;5.80;;;4.80;;
8260;SDS011;64115;50.170;8.242;2024-03-17T00:38:53;5.47;;;4.97;;
8260;SDS011;64115;50.170;8.242;2024-03-17T00:41:20;5.83;;;5.23;;
8260;SDS011;64115;50.170;8.242;2024-03-17T00:43:47;6.27;;;5.63;;
8260;SDS011;64115;50.170;8.242;2024-03-17T00:46:13;8.77;;;5.90;;
8260;SDS011;64115;50.170;8.242;2024-03-17T00:48:39;8.20;;;5.87;;
8260;SDS011;64115;50.170;8.242;2024-03-17T00:51:05;8.13;;;5.40;;
8260;SDS011;64115;50.170;8.242;2024-03-17T00:53:32;5.73;;;5.23;;
8260;SDS011;64115;50.170;8.242;2024-03-17T00:55:58;8.03;;;5.27;;
8260;SDS011;64115;50.170;8.242;2024-03-17T00:58:27;5.90;;;5.20;;
8260;SDS011;64115;50.170;8.242;2024-03-17T01:00:53;6.67;;;5.43;;
8260;SDS011;64115;50.170;8.242;2024-03-17T01:03:20;5.47;;;4.97;;
8260;SDS011;64115;50.170;8.242;2024-03-17T01:05:47;5.77;;;4.27;;
8260;SDS011;64115;50.170;8.242;2024-03-17T01:08:17;4.63;;;4.20;;
8260;SDS011;64115;50.170;8.242;2024-03-17T01:10:44;6.13;;;4.67;;
8260;SDS011;64115;50.170;8.242;2024-03-17T01:13:12;37.70;;;15.33;;
8260;SDS011;64115;50.170;8.242;2024-03-17T01:15:40;12.63;;;7.70;;
8260;SDS011;64115;50.170;8.242;2024-03-17T01:18:07;17.93;;;8.43;;
8260;SDS011;64115;50.170;8.242;2024-03-17T01:20:34;15.67;;;7.83;;
8260;SDS011;64115;50.170;8.242;2024-03-17T01:23:02;32.97;;;12.03;;
8260;SDS011;64115;50.170;8.242;2024-03-17T01:25:28;38.40;;;14.53;;
8260;SDS011;64115;50.170;8.242;2024-03-17T01:27:56;57.77;;;21.10;;
8260;SDS011;64115;50.170;8.242;2024-03-17T01:30:22;20.33;;;9.77;;
8260;SDS011;64115;50.170;8.242;2024-03-17T01:32:50;8.53;;;6.33;;
8260;SDS011;64115;50.170;8.242;2024-03-17T01:35:16;9.33;;;6.00;;
8260;SDS011;64115;50.170;8.242;2024-03-17T01:37:43;5.30;;;4.80;;
8260;SDS011;64115;50.170;8.242;2024-03-17T01:40:09;4.80;;;4.40;;
8260;SDS011;64115;50.170;8.242;2024-03-17T01:42:37;6.27;;;4.73;;
8260;SDS011;64115;50.170;8.242;2024-03-17T01:45:10;8.60;;;5.60;;
8260;SDS011;64115;50.170;8.242;2024-03-17T01:47:51;5.17;;;4.33;;
8260;SDS011;64115;50.170;8.242;2024-03-17T01:50:17;4.63;;;3.80;;
8260;SDS011;64115;50.170;8.242;2024-03-17T01:52:49;5.53;;;4.47;;
8260;SDS011;64115;50.170;8.242;2024-03-17T01:55:16;8.60;;;5.90;;
8260;SDS011;64115;50.170;8.242;2024-03-17T01:57:43;5.80;;;5.20;;
8260;SDS011;64115;50.170;8.242;2024-03-17T02:00:10;6.30;;;5.23;;
8260;SDS011;64115;50.170;8.242;2024-03-17T02:02:37;8.40;;;5.80;;
8260;SDS011;64115;50.170;8.242;2024-03-17T02:05:05;7.17;;;6.00;;
8260;SDS011;64115;50.170;8.242;2024-03-17T02:07:32;5.97;;;5.47;;
8260;SDS011;64115;50.170;8.242;2024-03-17T02:09:58;6.07;;;5.20;;
8260;SDS011;64115;50.170;8.242;2024-03-17T02:12:25;5.67;;;5.17;;
8260;SDS011;64115;50.170;8.242;2024-03-17T02:14:51;7.80;;;4.80;;
8260;SDS011;64115;50.170;8.242;2024-03-17T02:17:17;4.50;;;4.10;;
8260;SDS011;64115;50.170;8.242;2024-03-17T02:19:43;5.07;;;4.00;;
8260;SDS011;64115;50.170;8.242;2024-03-17T02:22:13;10.53;;;5.23;;
8260;SDS011;64115;50.170;8.242;2024-03-17T02:24:39;5.27;;;4.37;;
8260;SDS011;64115;50.170;8.242;2024-03-17T02:27:06;23.97;;;10.17;;
8260;SDS011;64115;50.170;8.242;2024-03-17T02:29:31;8.40;;;5.13;;
8260;SDS011;64115;50.170;8.242;2024-03-17T02:31:58;6.27;;;3.77;;
8260;SDS011;64115;50.170;8.242;2024-03-17T02:34:24;4.53;;;4.00;;
8260;SDS011;64115;50.170;8.242;2024-03-17T02:36:51;4.67;;;4.00;;
8260;SDS011;64115;50.170;8.242;2024-03-17T02:39:18;7.80;;;4.10;;
8260;SDS011;64115;50.170;8.242;2024-03-17T02:42:10;6.67;;;4.13;;
8260;SDS011;64115;50.170;8.242;2024-03-17T02:44:38;7.07;;;6.33;;
8260;SDS011;64115;50.170;8.242;2024-03-17T02:47:06;6.27;;;4.60;;
8260;SDS011;64115;50.170;8.242;2024-03-17T02:49:34;5.27;;;4.77;;
8260;SDS011;64115;50.170;8.242;2024-03-17T02:52:04;7.40;;;5.10;;
8260;SDS011;64115;50.170;8.242;2024-03-17T02:54:33;4.20;;;3.80;;
8260;SDS011;64115;50.170;8.242;2024-03-17T02:57:00;4.70;;;4.20;;
8260;SDS011;64115;50.170;8.242;2024-03-17T02:59:27;5.53;;;4.83;;
8260;SDS011;64115;50.170;8.242;2024-03-17T03:01:54;5.47;;;4.73;;
8260;SDS011;64115;50.170;8.242;2024-03-17T03:04:21;5.20;;;4.70;;
8260;SDS011;64115;50.170;8.242;2024-03-17T03:06:48;5.57;;;4.60;;
8260;SDS011;64115;50.170;8.242;2024-03-17T03:09:13;4.93;;;4.43;;
8260;SDS011;64115;50.170;8.242;2024-03-17T03:11:47;6.40;;;4.20;;
8260;SDS011;64115;50.170;8.242;2024-03-17T03:14:13;5.53;;;4.10;;
8260;SDS011;64115;50.170;8.242;2024-03-17T03:16:40;4.73;;;3.30;;
8260;SDS011;64115;50.170;8.242;2024-03-17T03:19:07;4.30;;;3.73;;
8260;SDS011;64115;50.170;8.242;2024-03-17T03:21:34;5.73;;;4.60;;
8260;SDS011;64115;50.170;8.242;2024-03-17T03:24:01;5.60;;;4.70;;
8260;SDS011;64115;50.170;8.242;2024-03-17T03:26:27;4.87;;;4.43;;
8260;SDS011;64115;50.170;8.242;2024-03-17T03:28:56;7.80;;;5.10;;
8260;SDS011;64115;50.170;8.242;2024-03-17T03:31:22;6.93;;;5.40;;
8260;SDS011;64115;50.170;8.242;2024-03-17T03:33:49;8.03;;;5.10;;
8260;SDS011;64115;50.170;8.242;2024-03-17T03:36:16;6.53;;;5.57;;
8260;SDS011;64115;50.170;8.242;2024-03-17T03:38:43;7.17;;;5.70;;
8260;SDS011;64115;50.170;8.242;2024-03-17T03:41:10;6.57;;;5.63;;
8260;SDS011;64115;50.170;8.242;2024-03-17T03:43:39;5.50;;;5.00;;
8260;SDS011;64115;50.170;8.242;2024-03-17T03:46:07;6.73;;;5.37;;
8260;SDS011;64115;50.170;8.242;2024-03-17T03:48:34;5.90;;;5.30;;
8260;SDS011;64115;50.170;8.242;2024-03-17T03:51:04;6.67;;;5.40;;
8260;SDS011;64115;50.170;8.242;2024-03-17T03:53:31;6.13;;;5.30;;
8260;SDS011;64115;50.170;8.242;2024-03-17T03:55:59;5.10;;;4.60;;
8260;SDS011;64115;50.170;8.242;2024-03-17T03:58:27;5.67;;;4.70;;
8260;SDS011;64115;50.170;8.242;2024-03-17T04:00:54;5.87;;;5.27;;
8260;SDS011;64115;50.170;8.242;2024-03-17T04:03:22;4.70;;;4.40;;
8260;SDS011;64115;50.170;8.242;2024-03-17T04:05:49;5.70;;;4.20;;
8260;SDS011;64115;50.170;8.242;2024-03-17T04:08:18;4.23;;;3.83;;
8260;SDS011;64115;50.170;8.242;2024-03-17T04:10:47;5.20;;;3.97;;
8260;SDS011;64115;50.170;8.242;2024-03-17T04:13:14;3.77;;;3.20;;
8260;SDS011;64115;50.170;8.242;2024-03-17T04:15:41;3.70;;;2.80;;
8260;SDS011;64115;50.170;8.242;2024-03-17T04:18:08;3.13;;;2.80;;
8260;SDS011;64115;50.170;8.242;2024-03-17T04:20:36;4.50;;;2.80;;
8260;SDS011;64115;50.170;8.242;2024-03-17T04:23:03;4.10;;;2.80;;
8260;SDS011;64115;50.170;8.242;2024-03-17T04:25:30;3.07;;;2.67;;
8260;SDS011;64115;50.170;8.242;2024-03-17T04:27:57;3.20;;;2.63;;
8260;SDS011;64115;50.170;8.242;2024-03-17T04:30:24;2.50;;;2.30;;
8260;SDS011;64115;50.170;8.242;2024-03-17T04:32:51;2.50;;;2.30;;
8260;SDS011;64115;50.170;8.242;2024-03-17T04:35:18;2.53;;;2.20;;
8260;SDS011;64115;50.170;8.242;2024-03-17T04:37:46;2.67;;;2.40;;
8260;SDS011;64115;50.170;8.242;2024-03-17T04:40:13;2.37;;;2.27;;
8260;SDS011;64115;50.170;8.242;2024-03-17T04:42:39;2.63;;;2.43;;
8260;SDS011;64115;50.170;8.242;2024-03-17T04:45:07;2.77;;;2.43;;
8260;SDS011;64115;50.170;8.242;2024-03-17T04:47:35;2.90;;;2.20;;
8260;SDS011;64115;50.170;8.242;2024-03-17T04:50:03;2.60;;;2.40;;
8260;SDS011;64115;50.170;8.242;2024-03-17T04:52:30;2.53;;;2.30;;
8260;SDS011;64115;50.170;8.242;2024-03-17T04:54:58;2.37;;;2.17;;
8260;SDS011;64115;50.170;8.242;2024-03-17T04:57:25;3.20;;;2.50;;
8260;SDS011;64115;50.170;8.242;2024-03-17T04:59:52;3.70;;;2.40;;
8260;SDS011;64115;50.170;8.242;2024-03-17T05:02:18;2.60;;;2.20;;
8260;SDS011;64115;50.170;8.242;2024-03-17T05:04:46;2.43;;;2.10;;
8260;SDS011;64115;50.170;8.242;2024-03-17T05:07:13;3.03;;;2.20;;
8260;SDS011;64115;50.170;8.242;2024-03-17T05:09:40;2.90;;;2.27;;
8260;SDS011;64115;50.170;8.242;2024-03-17T05:12:10;2.83;;;2.10;;
8260;SDS011;64115;50.170;8.242;2024-03-17T05:14:37;2.43;;;2.20;;
8260;SDS011;64115;50.170;8.242;2024-03-17T05:17:04;2.97;;;2.30;;
8260;SDS011;64115;50.170;8.242;2024-03-17T05:19:31;3.53;;;2.57;;
8260;SDS011;64115;50.170;8.242;2024-03-17T05:21:57;3.60;;;2.50;;
8260;SDS011;64115;50.170;8.242;2024-03-17T05:24:24;2.30;;;2.10;;
8260;SDS011;64115;50.170;8.242;2024-03-17T05:26:51;3.03;;;2.40;;
8260;SDS011;64115;50.170;8.242;2024-03-17T05:29:19;3.50;;;2.20;;
8260;SDS011;64115;50.170;8.242;2024-03-17T05:31:47;3.63;;;2.20;;
8260;SDS011;64115;50.170;8.242;2024-03-17T05:34:14;2.60;;;2.40;;
8260;SDS011;64115;50.170;8.242;2024-03-17T05:36:41;2.70;;;2.50;;
8260;SDS011;64115;50.170;8.242;2024-03-17T05:39:07;2.80;;;2.60;;
8260;SDS011;64115;50.170;8.242;2024-03-17T05:41:34;4.40;;;2.70;;
8260;SDS011;64115;50.170;8.242;2024-03-17T05:44:01;5.20;;;2.90;;
8260;SDS011;64115;50.170;8.242;2024-03-17T05:46:30;3.73;;;2.90;;
8260;SDS011;64115;50.170;8.242;2024-03-17T05:48:56;3.00;;;2.80;;
8260;SDS011;64115;50.170;8.242;2024-03-17T05:51:23;2.73;;;2.53;;
8260;SDS011;64115;50.170;8.242;2024-03-17T05:53:52;2.40;;;2.30;;
8260;SDS011;64115;50.170;8.242;2024-03-17T05:56:20;2.97;;;2.60;;
8260;SDS011;64115;50.170;8.242;2024-03-17T05:58:47;5.70;;;2.80;;
8260;SDS011;64115;50.170;8.242;2024-03-17T06:01:14;2.70;;;2.50;;
8260;SDS011;64115;50.170;8.242;2024-03-17T06:03:42;2.90;;;2.50;;
8260;SDS011;64115;50.170;8.242;2024-03-17T06:06:09;2.60;;;2.40;;
8260;SDS011;64115;50.170;8.242;2024-03-17T06:08:36;4.03;;;2.60;;
8260;SDS011;64115;50.170;8.242;2024-03-17T06:11:04;2.10;;;2.00;;
8260;SDS011;64115;50.170;8.242;2024-03-17T06:13:31;2.20;;;2.10;;
8260;SDS011;64115;50.170;8.242;2024-03-17T06:15:58;2.07;;;1.97;;
8260;SDS011;64115;50.170;8.242;2024-03-17T06:18:27;2.37;;;2.00;;
8260;SDS011;64115;50.170;8.242;2024-03-17T06:20:56;2.20;;;2.00;;
8260;SDS011;64115;50.170;8.242;2024-03-17T06:23:24;3.17;;;2.10;;
8260;SDS011;64115;50.170;8.242;2024-03-17T06:25:52;3.57;;;2.23;;
8260;SDS011;64115;50.170;8.242;2024-03-17T06:28:19;2.30;;;2.20;;
8260;SDS011;64115;50.170;8.242;2024-03-17T06:30:47;2.20;;;2.00;;
8260;SDS011;64115;50.170;8.242;2024-03-17T06:33:21;1.90;;;1.80;;
8260;SDS011;64115;50.170;8.242;2024-03-17T06:35:47;2.20;;;2.00;;
8260;SDS011;64115;50.170;8.242;2024-03-17T06:38:15;2.13;;;2.00;;
8260;SDS011;64115;50.170;8.242;2024-03-17T06:40:47;2.17;;;2.00;;
8260;SDS011;64115;50.170;8.242;2024-03-17T06:43:15;1.80;;;1.70;;
8260;SDS011;64115;50.170;8.242;2024-03-17T06:45:42;2.87;;;1.90;;
8260;SDS011;64115;50.170;8.242;2024-03-17T06:48:08;2.97;;;2.20;;
8260;SDS011;64115;50.170;8.242;2024-03-17T06:50:37;2.53;;;2.13;;
8260;SDS011;64115;50.170;8.242;2024-03-17T06:53:05;2.70;;;2.10;;
8260;SDS011;64115;50.170;8.242;2024-03-17T06:55:35;3.00;;;2.10;;
8260;SDS011;64115;50.170;8.242;2024-03-17T06:58:01;3.00;;;1.90;;
8260;SDS011;64115;50.170;8.242;2024-03-17T07:00:29;2.30;;;2.10;;
8260;SDS011;64115;50.170;8.242;2024-03-17T07:02:56;2.07;;;1.97;;
8260;SDS011;64115;50.170;8.242;2024-03-17T07:05:22;2.40;;;2.10;;
8260;SDS011;64115;50.170;8.242;2024-03-17T07:07:49;3.03;;;2.07;;
8260;SDS011;64115;50.170;8.242;2024-03-17T07:10:16;1.97;;;1.87;;
8260;SDS011;64115;50.170;8.242;2024-03-17T07:12:45;2.37;;;1.90;;
8260;SDS011;64115;50.170;8.242;2024-03-17T07:15:11;3.67;;;2.13;;
8260;SDS011;64115;50.170;8.242;2024-03-17T07:17:38;2.87;;;2.67;;
8260;SDS011;64115;50.170;8.242;2024-03-17T07:20:06;2.00;;;1.90;;
8260;SDS011;64115;50.170;8.242;2024-03-17T07:22:34;2.03;;;1.80;;
8260;SDS011;64115;50.170;8.242;2024-03-17T07:25:01;1.90;;;1.80;;
8260;SDS011;64115;50.170;8.242;2024-03-17T07:27:28;2.93;;;1.73;;
8260;SDS011;64115;50.170;8.242;2024-03-17T07:29:56;3.10;;;1.87;;
8260;SDS011;64115;50.170;8.242;2024-03-17T07:32:22;1.90;;;1.80;;
8260;SDS011;64115;50.170;8.242;2024-03-17T07:34:49;2.60;;;1.80;;
8260;SDS011;64115;50.170;8.242;2024-03-17T07:37:16;2.20;;;1.50;;
8260;SDS011;64115;50.170;8.242;2024-03-17T07:39:43;2.23;;;1.60;;
8260;SDS011;64115;50.170;8.242;2024-03-17T07:42:13;1.67;;;1.50;;
8260;SDS011;64115;50.170;8.242;2024-03-17T07:44:39;2.37;;;1.80;;
8260;SDS011;64115;50.170;8.242;2024-03-17T07:47:11;1.70;;;1.60;;
8260;SDS011;64115;50.170;8.242;2024-03-17T07:49:38;1.70;;;1.60;;
8260;SDS011;64115;50.170;8.242;2024-03-17T07:52:05;2.53;;;1.80;;
8260;SDS011;64115;50.170;8.242;2024-03-17T07:54:32;1.80;;;1.70;;
8260;SDS011;64115;50.170;8.242;2024-03-17T07:57:00;2.53;;;1.60;;
8260;SDS011;64115;50.170;8.242;2024-03-17T07:59:27;1.60;;;1.50;;
8260;SDS011;64115;50.170;8.242;2024-03-17T08:01:54;1.67;;;1.50;;
8260;SDS011;64115;50.170;8.242;2024-03-17T08:04:23;1.67;;;1.47;;
8260;SDS011;64115;50.170;8.242;2024-03-17T08:06:50;1.50;;;1.40;;
8260;SDS011;64115;50.170;8.242;2024-03-17T08:09:17;1.70;;;1.60;;
8260;SDS011;64115;50.170;8.242;2024-03-17T08:11:44;1.90;;;1.70;;
8260;SDS011;64115;50.170;8.242;2024-03-17T08:14:12;1.67;;;1.57;;
8260;SDS011;64115;50.170;8.242;2024-03-17T08:16:39;1.63;;;1.53;;
8260;SDS011;64115;50.170;8.242;2024-03-17T08:19:06;1.60;;;1.50;;
8260;SDS011;64115;50.170;8.242;2024-03-17T08:21:35;2.47;;;1.50;;
8260;SDS011;64115;50.170;8.242;2024-03-17T08:24:02;1.77;;;1.67;;
8260;SDS011;64115;50.170;8.242;2024-03-17T08:26:29;3.13;;;1.60;;
8260;SDS011;64115;50.170;8.242;2024-03-17T08:28:55;1.67;;;1.57;;
8260;SDS011;64115;50.170;8.242;2024-03-17T08:31:23;1.87;;;1.50;;
8260;SDS011;64115;50.170;8.242;2024-03-17T08:33:50;1.70;;;1.60;;
8260;SDS011;64115;50.170;8.242;2024-03-17T08:36:17;1.67;;;1.57;;
8260;SDS011;64115;50.170;8.242;2024-03-17T08:38:46;3.23;;;1.60;;
8260;SDS011;64115;50.170;8.242;2024-03-17T08:41:13;1.63;;;1.53;;
8260;SDS011;64115;50.170;8.242;2024-03-17T08:43:41;1.80;;;1.63;;
8260;SDS011;64115;50.170;8.242;2024-03-17T08:46:08;2.90;;;2.27;;
8260;SDS011;64115;50.170;8.242;2024-03-17T08:48:38;2.67;;;2.43;;
8260;SDS011;64115;50.170;8.242;2024-03-17T08:51:07;8.90;;;6.27;;
8260;SDS011;64115;50.170;8.242;2024-03-17T08:53:34;2.53;;;2.30;;
8260;SDS011;64115;50.170;8.242;2024-03-17T08:56:04;1.77;;;1.67;;
8260;SDS011;64115;50.170;8.242;2024-03-17T08:58:32;1.90;;;1.80;;
8260;SDS011;64115;50.170;8.242;2024-03-17T09:01:02;3.20;;;2.30;;
8260;SDS011;64115;50.170;8.242;2024-03-17T09:03:29;2.70;;;2.40;;
8260;SDS011;64115;50.170;8.242;2024-03-17T09:05:56;2.43;;;2.23;;
8260;SDS011;64115;50.170;8.242;2024-03-17T09:08:24;2.93;;;2.60;;
8260;SDS011;64115;50.170;8.242;2024-03-17T09:10:53;3.10;;;2.63;;
8260;SDS011;64115;50.170;8.242;2024-03-17T09:13:22;2.30;;;2.10;;
8260;SDS011;64115;50.170;8.242;2024-03-17T09:15:50;2.37;;;2.17;;
8260;SDS011;64115;50.170;8.242;2024-03-17T09:18:17;3.30;;;2.50;;
8260;SDS011;64115;50.170;8.242;2024-03-17T09:20:44;3.10;;;2.80;;
8260;SDS011;64115;50.170;8.242;2024-03-17T09:23:11;2.57;;;2.37;;
8260;SDS011;64115;50.170;8.242;2024-03-17T09:25:39;3.50;;;2.47;;
8260;SDS011;64115;50.170;8.242;2024-03-17T09:28:06;3.57;;;2.17;;
8260;SDS011;64115;50.170;8.242;2024-03-17T09:30:34;2.57;;;2.37;;
8260;SDS011;64115;50.170;8.242;2024-03-17T09:33:00;3.43;;;2.37;;
8260;SDS011;64115;50.170;8.242;2024-03-17T09:35:29;2.90;;;2.70;;
8260;SDS011;64115;50.170;8.242;2024-03-17T09:37:56;2.60;;;2.40;;
8260;SDS011;64115;50.170;8.242;2024-03-17T09:40:23;2.73;;;2.53;;
8260;SDS011;64115;50.170;8.242;2024-03-17T09:42:50;3.37;;;2.60;;
8260;SDS011;64115;50.170;8.242;2024-03-17T09:45:16;3.17;;;2.80;;
8260;SDS011;64115;50.170;8.242;2024-03-17T09:47:46;3.10;;;2.80;;
8260;SDS011;64115;50.170;8.242;2024-03-17T09:50:13;3.60;;;3.30;;
8260;SDS011;64115;50.170;8.242;2024-03-17T09:52:42;3.20;;;3.00;;
8260;SDS011;64115;50.170;8.242;2024-03-17T09:55:12;3.20;;;2.80;;
8260;SDS011;64115;50.170;8.242;2024-03-17T09:57:41;3.30;;;3.00;;
8260;SDS011;64115;50.170;8.242;2024-03-17T10:00:09;3.10;;;2.90;;
8260;SDS011;64115;50.170;8.242;2024-03-17T10:02:41;41.27;;;11.10;;
8260;SDS011;64115;50.170;8.242;2024-03-17T10:05:19;3.13;;;2.90;;
8260;SDS011;64115;50.170;8.242;2024-03-17T10:07:48;4.40;;;3.33;;
8260;SDS011;64115;50.170;8.242;2024-03-17T10:10:15;2.93;;;2.67;;
8260;SDS011;64115;50.170;8.242;2024-03-17T10:12:43;3.03;;;2.70;;
8260;SDS011;64115;50.170;8.242;2024-03-17T10:15:10;3.10;;;2.60;;
8260;SDS011;64115;50.170;8.242;2024-03-17T10:17:37;3.43;;;2.80;;
8260;SDS011;64115;50.170;8.242;2024-03-17T10:20:11;3.53;;;2.90;;
8260;SDS011;64115;50.170;8.242;2024-03-17T10:22:49;4.57;;;2.97;;
8260;SDS011;64115;50.170;8.242;2024-03-17T10:25:27;3.03;;;2.80;;
8260;SDS011;64115;50.170;8.242;2024-03-17T10:27:55;3.00;;;2.80;;
8260;SDS011;64115;50.170;8.242;2024-03-17T10:30:22;3.77;;;2.67;;
8260;SDS011;64115;50.170;8.242;2024-03-17T10:32:57;3.20;;;2.93;;
8260;SDS011;64115;50.170;8.242;2024-03-17T10:35:29;2.87;;;2.67;;
8260;SDS011;64115;50.170;8.242;2024-03-17T10:37:58;3.47;;;3.10;;
8260;SDS011;64115;50.170;8.242;2024-03-17T10:40:27;3.33;;;3.10;;
8260;SDS011;64115;50.170;8.242;2024-03-17T10:42:56;6.13;;;3.43;;
8260;SDS011;64115;50.170;8.242;2024-03-17T10:47:51;3.13;;;2.83;;
8260;SDS011;64115;50.170;8.242;2024-03-17T10:50:21;3.30;;;2.63;;
8260;SDS011;64115;50.170;8.242;2024-03-17T10:52:49;3.13;;;2.83;;
8260;SDS011;64115;50.170;8.242;2024-03-17T10:55:23;3.30;;;3.10;;
8260;SDS011;64115;50.170;8.242;2024-03-17T10:57:53;3.90;;;3.60;;
8260;SDS011;64115;50.170;8.242;2024-03-17T11:00:23;4.67;;;3.10;;
8260;SDS011;64115;50.170;8.242;2024-03-17T11:02:52;3.60;;;3.30;;
8260;SDS011;64115;50.170;8.242;2024-03-17T11:05:26;3.37;;;3.03;;
8260;SDS011;64115;50.170;8.242;2024-03-17T11:07:58;3.63;;;3.33;;
8260;SDS011;64115;50.170;8.242;2024-03-17T11:10:29;3.80;;;3.50;;
8260;SDS011;64115;50.170;8.242;2024-03-17T11:13:00;4.17;;;3.60;;
8260;SDS011;64115;50.170;8.242;2024-03-17T11:20:33;4.27;;;3.50;;
8260;SDS011;64115;50.170;8.242;2024-03-17T11:23:01;3.90;;;3.37;;
8260;SDS011;64115;50.170;8.242;2024-03-17T11:27:58;3.77;;;3.47;;
8260;SDS011;64115;50.170;8.242;2024-03-17T11:54:40;4.93;;;4.40;;
8260;SDS011;64115;50.170;8.242;2024-03-17T11:57:07;5.00;;;4.47;;
8260;SDS011;64115;50.170;8.242;2024-03-17T11:59:37;6.17;;;3.97;;
8260;SDS011;64115;50.170;8.242;2024-03-17T12:02:15;4.57;;;4.17;;
8260;SDS011;64115;50.170;8.242;2024-03-17T12:04:45;4.50;;;4.10;;
8260;SDS011;64115;50.170;8.242;2024-03-17T12:07:15;4.13;;;3.83;;
8260;SDS011;64115;50.170;8.242;2024-03-17T12:09:42;4.73;;;4.10;;
8260;SDS011;64115;50.170;8.242;2024-03-17T12:12:18;5.60;;;4.33;;
8260;SDS011;64115;50.170;8.242;2024-03-17T12:14:45;4.53;;;4.13;;
8260;SDS011;64115;50.170;8.242;2024-03-17T12:17:11;4.50;;;4.10;;
8260;SDS011;64115;50.170;8.242;2024-03-17T12:19:39;5.43;;;4.10;;
8260;SDS011;64115;50.170;8.242;2024-03-17T12:22:05;4.27;;;3.87;;
8260;SDS011;64115;50.170;8.242;2024-03-17T12:24:32;4.47;;;4.07;;
8260;SDS011;64115;50.170;8.242;2024-03-17T12:26:59;4.70;;;4.30;;
8260;SDS011;64115;50.170;8.242;2024-03-17T12:34:44;4.70;;;4.30;;
8260;SDS011;64115;50.170;8.242;2024-03-17T12:37:17;5.33;;;4.60;;
8260;SDS011;64115;50.170;8.242;2024-03-17T12:39:43;4.93;;;4.53;;
8260;SDS011;64115;50.170;8.242;2024-03-17T12:42:10;6.37;;;4.70;;
8260;SDS011;64115;50.170;8.242;2024-03-17T12:44:39;4.73;;;4.33;;
8260;SDS011;64115;50.170;8.242;2024-03-17T12:47:30;5.60;;;4.90;;
8260;SDS011;64115;50.170;8.242;2024-03-17T12:49:57;4.70;;;4.30;;
8260;SDS011;64115;50.170;8.242;2024-03-17T12:52:24;5.20;;;4.70;;
8260;SDS011;64115;50.170;8.242;2024-03-17T12:57:45;6.97;;;4.83;;
8260;SDS011;64115;50.170;8.242;2024-03-17T13:00:30;4.83;;;4.43;;
8260;SDS011;64115;50.170;8.242;2024-03-17T13:02:56;5.10;;;4.70;;
8260;SDS011;64115;50.170;8.242;2024-03-17T13:05:22;5.97;;;5.37;;
8260;SDS011;64115;50.170;8.242;2024-03-17T13:07:48;6.47;;;4.87;;
8260;SDS011;64115;50.170;8.242;2024-03-17T13:10:18;5.60;;;5.20;;
8260;SDS011;64115;50.170;8.242;2024-03-17T13:12:45;10.67;;;6.10;;
8260;SDS011;64115;50.170;8.242;2024-03-17T13:15:17;5.37;;;4.90;;
8260;SDS011;64115;50.170;8.242;2024-03-17T13:17:43;6.17;;;5.60;;
8260;SDS011;64115;50.170;8.242;2024-03-17T13:20:13;6.13;;;5.50;;
8260;SDS011;64115;50.170;8.242;2024-03-17T13:22:40;6.87;;;6.13;;
8260;SDS011;64115;50.170;8.242;2024-03-17T13:25:22;7.67;;;5.87;;
8260;SDS011;64115;50.170;8.242;2024-03-17T13:27:54;6.33;;;5.73;;
8260;SDS011;64115;50.170;8.242;2024-03-17T13:30:21;6.07;;;5.47;;
8260;SDS011;64115;50.170;8.242;2024-03-17T13:32:48;5.97;;;5.47;;
8260;SDS011;64115;50.170;8.242;2024-03-17T13:35:20;6.43;;;5.83;;
8260;SDS011;64115;50.170;8.242;2024-03-17T13:37:48;7.23;;;6.07;;
8260;SDS011;64115;50.170;8.242;2024-03-17T13:40:15;6.67;;;5.90;;
8260;SDS011;64115;50.170;8.242;2024-03-17T13:42:51;6.10;;;5.60;;
8260;SDS011;64115;50.170;8.242;2024-03-17T13:45:19;6.23;;;5.40;;
8260;SDS011;64115;50.170;8.242;2024-03-17T13:47:47;6.67;;;5.90;;
8260;SDS011;64115;50.170;8.242;2024-03-17T13:50:14;6.67;;;6.03;;
8260;SDS011;64115;50.170;8.242;2024-03-17T13:52:40;6.03;;;5.60;;
8260;SDS011;64115;50.170;8.242;2024-03-17T13:55:16;6.80;;;5.97;;
8260;SDS011;64115;50.170;8.242;2024-03-17T13:57:46;7.03;;;6.07;;
8260;SDS011;64115;50.170;8.242;2024-03-17T14:00:15;7.07;;;6.37;;
8260;SDS011;64115;50.170;8.242;2024-03-17T14:02:43;7.20;;;6.50;;
8260;SDS011;64115;50.170;8.242;2024-03-17T14:05:14;6.73;;;6.03;;
8260;SDS011;64115;50.170;8.242;2024-03-17T14:07:41;6.50;;;5.90;;
8260;SDS011;64115;50.170;8.242;2024-03-17T14:10:08;6.83;;;6.23;;
8260;SDS011;64115;50.170;8.242;2024-03-17T14:12:35;6.67;;;6.07;;
8260;SDS011;64115;50.170;8.242;2024-03-17T14:15:01;7.00;;;6.30;;
8260;SDS011;64115;50.170;8.242;2024-03-17T14:17:30;7.73;;;6.50;;
8260;SDS011;64115;50.170;8.242;2024-03-17T14:19:55;6.47;;;5.83;;
8260;SDS011;64115;50.170;8.242;2024-03-17T14:22:21;6.73;;;6.10;;
8260;SDS011;64115;50.170;8.242;2024-03-17T14:24:46;6.90;;;6.13;;
8260;SDS011;64115;50.170;8.242;2024-03-17T14:27:12;7.97;;;6.00;;
8260;SDS011;64115;50.170;8.242;2024-03-17T14:29:38;7.17;;;5.50;;
8260;SDS011;64115;50.170;8.242;2024-03-17T14:32:04;6.67;;;5.80;;
8260;SDS011;64115;50.170;8.242;2024-03-17T14:34:30;7.87;;;6.20;;
8260;SDS011;64115;50.170;8.242;2024-03-17T14:37:01;7.30;;;6.60;;
8260;SDS011;64115;50.170;8.242;2024-03-17T14:39:30;6.57;;;5.97;;
8260;SDS011;64115;50.170;8.242;2024-03-17T14:41:56;7.13;;;6.53;;
8260;SDS011;64115;50.170;8.242;2024-03-17T14:44:22;21.83;;;7.77;;
8260;SDS011;64115;50.170;8.242;2024-03-17T14:46:48;8.30;;;7.20;;
8260;SDS011;64115;50.170;8.242;2024-03-17T14:49:16;7.63;;;6.37;;
8260;SDS011;64115;50.170;8.242;2024-03-17T14:51:42;7.80;;;7.07;;
8260;SDS011;64115;50.170;8.242;2024-03-17T14:54:08;7.83;;;7.03;;
8260;SDS011;64115;50.170;8.242;2024-03-17T14:56:34;7.20;;;6.50;;
8260;SDS011;64115;50.170;8.242;2024-03-17T14:59:00;8.20;;;6.73;;
8260;SDS011;64115;50.170;8.242;2024-03-17T15:01:26;6.93;;;6.37;;
8260;SDS011;64115;50.170;8.242;2024-03-17T15:03:54;8.73;;;6.63;;
8260;SDS011;64115;50.170;8.242;2024-03-17T15:06:20;7.20;;;6.50;;
8260;SDS011;64115;50.170;8.242;2024-03-17T15:08:46;8.73;;;6.90;;
8260;SDS011;64115;50.170;8.242;2024-03-17T15:11:11;6.97;;;6.00;;
8260;SDS011;64115;50.170;8.242;2024-03-17T15:13:37;7.27;;;6.57;;
8260;SDS011;64115;50.170;8.242;2024-03-17T15:16:03;7.30;;;6.70;;
8260;SDS011;64115;50.170;8.242;2024-03-17T15:18:29;7.20;;;6.60;;
8260;SDS011;64115;50.170;8.242;2024-03-17T15:20:56;7.63;;;6.87;;
8260;SDS011;64115;50.170;8.242;2024-03-17T15:23:22;7.77;;;6.97;;
8260;SDS011;64115;50.170;8.242;2024-03-17T15:25:58;7.97;;;7.27;;
8260;SDS011;64115;50.170;8.242;2024-03-17T15:28:33;7.83;;;7.03;;
8260;SDS011;64115;50.170;8.242;2024-03-17T15:31:10;7.47;;;6.77;;
8260;SDS011;64115;50.170;8.242;2024-03-17T15:33:37;7.50;;;6.70;;
8260;SDS011;64115;50.170;8.242;2024-03-17T15:36:06;7.97;;;7.03;;
8260;SDS011;64115;50.170;8.242;2024-03-17T15:38:33;7.90;;;7.10;;
8260;SDS011;64115;50.170;8.242;2024-03-17T15:41:02;8.60;;;7.70;;
8260;SDS011;64115;50.170;8.242;2024-03-17T15:43:31;10.77;;;7.60;;
8260;SDS011;64115;50.170;8.242;2024-03-17T15:46:00;8.43;;;7.53;;
8260;SDS011;64115;50.170;8.242;2024-03-17T15:48:26;8.93;;;7.57;;